createdAt,value
2019-05-15T00:00:38.872Z,59.64
2019-05-15T00:03:09.040Z,59.90
2019-05-15T00:05:39.427Z,60.08
2019-05-15T00:08:09.857Z,59.65
2019-05-15T00:10:39.645Z,59.31
2019-05-15T00:13:09.584Z,59.74
2019-05-15T00:15:40.380Z,60.68
2019-05-15T00:18:10.587Z,61.94
2019-05-15T00:20:40.211Z,62.91
2019-05-15T00:23:09.680Z,62.85
2019-05-15T00:25:39.709Z,63.72
2019-05-15T00:28:09.810Z,65.11
2019-05-15T00:30:39.376Z,65.27
2019-05-15T00:33:09.338Z,65.52
2019-05-15T00:35:39.707Z,65.24
2019-05-15T00:38:09.618Z,65.87
2019-05-15T00:40:39.716Z,65.77
2019-05-15T00:43:09.846Z,66.54
2019-05-15T00:45:39.579Z,67.43
2019-05-15T00:48:09.142Z,67.08
2019-05-15T00:50:39.246Z,67.20
2019-05-15T00:53:09.613Z,68.00
2019-05-15T00:55:39.790Z,68.63
2019-05-15T00:58:09.280Z,69.57
2019-05-15T01:00:41.746Z,69.83
2019-05-15T01:03:11.762Z,69.12
2019-05-15T01:05:41.486Z,68.80
2019-05-15T01:08:11.073Z,68.88
2019-05-15T01:10:40.926Z,68.33
2019-05-15T01:13:10.752Z,68.22
2019-05-15T01:15:40.362Z,68.45
2019-05-15T01:18:10.079Z,69.15
2019-05-15T01:20:39.686Z,68.86
2019-05-15T01:23:09.283Z,67.91
2019-05-15T01:25:39.240Z,68.66
2019-05-15T01:28:09.556Z,68.25
2019-05-15T01:30:39.661Z,68.75
2019-05-15T01:33:09.186Z,68.25
2019-05-15T01:35:38.896Z,68.25
2019-05-15T01:38:08.562Z,69.69
2019-05-15T01:40:38.593Z,68.54
2019-05-15T01:43:09.173Z,69.70
2019-05-15T01:45:39.690Z,69.52
2019-05-15T01:48:09.186Z,69.58
2019-05-15T01:50:39.132Z,68.37
2019-05-15T01:53:08.923Z,68.50
2019-05-15T01:55:39.433Z,69.40
2019-05-15T01:58:09.483Z,69.02
2019-05-15T02:00:39.509Z,69.36
2019-05-15T02:03:09.919Z,69.63
2019-05-15T02:05:40.009Z,69.57
2019-05-15T02:08:09.851Z,70.05
2019-05-15T02:10:39.534Z,69.60
2019-05-15T02:13:09.063Z,68.80
2019-05-15T02:15:39.421Z,68.82
2019-05-15T02:18:09.279Z,68.66
2019-05-15T02:20:39.292Z,70.26
2019-05-15T02:23:11.717Z,70.25
2019-05-15T02:25:40.432Z,69.95
2019-05-15T02:28:10.211Z,70.25
2019-05-15T02:30:40.918Z,69.96
2019-05-15T02:33:11.261Z,70.22
2019-05-15T02:35:40.764Z,70.33
2019-05-15T02:38:15.109Z,70.62
2019-05-15T02:40:41.644Z,71.70
2019-05-15T02:43:11.093Z,70.81
2019-05-15T02:45:42.578Z,71.68
2019-05-15T02:48:12.191Z,72.33
2019-05-15T02:50:41.651Z,71.83
2019-05-15T02:53:11.102Z,72.75
2019-05-15T02:55:40.829Z,73.11
2019-05-15T02:58:10.693Z,73.40
2019-05-15T03:00:47.259Z,73.01
2019-05-15T03:03:11.429Z,72.55
2019-05-15T03:05:41.272Z,72.73
2019-05-15T03:08:10.901Z,72.25
2019-05-15T03:10:41.143Z,72.54
2019-05-15T03:13:10.826Z,73.03
2019-05-15T03:15:40.898Z,73.19
2019-05-15T03:18:10.579Z,72.31
2019-05-15T03:20:40.303Z,72.82
2019-05-15T03:23:10.260Z,73.37
2019-05-15T03:25:40.793Z,73.00
2019-05-15T03:28:10.977Z,72.74
2019-05-15T03:31:13.183Z,73.38
2019-05-15T03:33:20.818Z,73.22
2019-05-15T03:35:44.540Z,73.34
2019-05-15T03:38:14.456Z,72.94
2019-05-15T03:40:44.205Z,73.29
2019-05-15T03:43:14.738Z,72.03
2019-05-15T03:45:44.189Z,71.53
2019-05-15T03:48:13.680Z,70.75
2019-05-15T03:50:43.464Z,70.59
2019-05-15T03:53:12.907Z,68.91
2019-05-15T03:55:42.366Z,69.27
2019-05-15T03:58:11.879Z,68.04
2019-05-15T04:00:41.310Z,67.48
2019-05-15T04:03:11.385Z,66.98
2019-05-15T04:05:40.860Z,66.56
2019-05-15T04:08:11.163Z,66.93
2019-05-15T04:10:40.931Z,66.91
2019-05-15T04:13:10.903Z,66.63
2019-05-15T04:15:40.351Z,66.59
2019-05-15T04:18:10.073Z,66.19
2019-05-15T04:20:40.555Z,66.57
2019-05-15T04:23:10.866Z,66.91
2019-05-15T04:25:40.658Z,67.45
2019-05-15T04:28:11.780Z,65.80
2019-05-15T04:30:41.677Z,66.25
2019-05-15T04:33:11.470Z,66.09
2019-05-15T04:35:41.153Z,65.64
2019-05-15T04:38:10.689Z,64.70
2019-05-15T04:40:40.244Z,65.46
2019-05-15T04:43:11.314Z,65.40
2019-05-15T04:45:41.014Z,64.53
2019-05-15T04:48:10.745Z,64.58
2019-05-15T04:50:40.656Z,64.91
2019-05-15T04:53:11.018Z,63.50
2019-05-15T04:55:41.175Z,65.19
2019-05-15T04:58:10.865Z,66.53
2019-05-15T05:00:49.505Z,66.94
2019-05-15T05:03:20.571Z,67.10
2019-05-15T05:05:50.686Z,64.74
2019-05-15T05:08:21.057Z,64.64
2019-05-15T05:10:50.818Z,64.43
2019-05-15T05:13:20.540Z,65.04
2019-05-15T05:15:51.293Z,64.96
2019-05-15T05:18:20.776Z,66.75
2019-05-15T05:20:50.283Z,64.93
2019-05-15T05:23:20.072Z,64.66
2019-05-15T05:25:49.710Z,65.67
2019-05-15T05:28:21.243Z,66.19
2019-05-15T05:30:50.711Z,65.41
2019-05-15T05:33:20.175Z,66.40
2019-05-15T05:35:49.678Z,66.01
2019-05-15T05:38:19.675Z,64.41
2019-05-15T05:40:50.104Z,65.38
2019-05-15T05:43:20.260Z,64.75
2019-05-15T05:45:49.765Z,64.71
2019-05-15T05:48:19.430Z,64.73
2019-05-15T05:50:50.036Z,65.64
2019-05-15T05:53:21.393Z,64.04
2019-05-15T05:55:53.493Z,64.43
2019-05-15T05:58:22.552Z,63.78
2019-05-15T06:00:52.325Z,63.78
2019-05-15T06:03:21.785Z,64.01
2019-05-15T06:05:51.628Z,64.18
2019-05-15T06:08:21.081Z,64.65
2019-05-15T06:10:50.528Z,63.92
2019-05-15T06:13:20.079Z,62.49
2019-05-15T06:15:49.523Z,62.31
2019-05-15T06:18:19.985Z,61.71
2019-05-15T06:20:50.116Z,61.80
2019-05-15T06:23:25.420Z,61.53
2019-05-15T06:25:51.182Z,61.78
2019-05-15T06:28:20.704Z,61.77
2019-05-15T06:30:50.406Z,62.40
2019-05-15T06:33:19.905Z,61.60
2019-05-15T06:35:49.473Z,59.74
2019-05-15T06:38:19.682Z,60.25
2019-05-15T06:40:50.259Z,60.35
2019-05-15T06:43:19.811Z,60.91
2019-05-15T06:45:49.449Z,60.76
2019-05-15T06:48:19.039Z,59.50
2019-05-15T06:50:49.344Z,58.02
2019-05-15T06:53:19.586Z,58.49
2019-05-15T06:55:49.276Z,57.18
2019-05-15T06:58:19.851Z,57.40
2019-05-15T07:00:49.862Z,58.30
2019-05-15T07:03:25.154Z,58.79
2019-05-15T07:05:51.194Z,58.11
2019-05-15T07:08:20.810Z,58.02
2019-05-15T07:10:50.392Z,57.85
2019-05-15T07:13:20.029Z,56.73
2019-05-15T07:15:49.956Z,56.81
2019-05-15T07:18:21.061Z,57.29
2019-05-15T07:20:50.505Z,57.92
2019-05-15T07:23:19.965Z,59.50
2019-05-15T07:25:50.173Z,59.36
2019-05-15T07:28:20.360Z,59.17
2019-05-15T07:30:49.958Z,59.15
2019-05-15T07:33:35.347Z,61.42
2019-05-15T07:35:50.600Z,62.79
2019-05-15T07:38:20.318Z,65.03
2019-05-15T07:40:57.323Z,65.52
2019-05-15T07:43:21.498Z,67.40
2019-05-15T07:45:54.936Z,67.59
2019-05-15T07:48:22.465Z,69.94
2019-05-15T07:50:51.897Z,69.19
2019-05-15T07:53:21.339Z,70.73
2019-05-15T07:55:51.457Z,70.49
2019-05-15T07:58:22.101Z,71.84
2019-05-15T08:00:51.802Z,72.59
2019-05-15T08:03:21.533Z,74.38
2019-05-15T08:05:58.850Z,75.25
2019-05-15T08:08:22.493Z,75.88
2019-05-15T08:10:52.349Z,74.77
2019-05-15T08:13:21.805Z,75.17
2019-05-15T08:15:51.252Z,76.03
2019-05-15T08:18:23.413Z,76.14
2019-05-15T08:20:52.871Z,76.29
2019-05-15T08:23:22.314Z,75.40
2019-05-15T08:25:51.789Z,75.70
2019-05-15T08:28:21.341Z,74.30
2019-05-15T08:30:50.876Z,74.41
2019-05-15T08:33:20.592Z,75.39
2019-05-15T08:35:51.816Z,75.68
2019-05-15T08:38:21.204Z,76.02
2019-05-15T08:40:50.656Z,77.23
2019-05-15T08:43:20.103Z,76.43
2019-05-15T08:45:50.039Z,77.67
2019-05-15T08:48:19.591Z,76.31
2019-05-15T08:50:49.210Z,76.34
2019-05-15T08:53:19.621Z,76.44
2019-05-15T08:55:49.533Z,77.24
2019-05-15T08:58:20.762Z,77.55
2019-05-15T09:00:52.252Z,76.69
2019-05-15T09:03:21.466Z,77.54
2019-05-15T09:05:50.917Z,77.37
2019-05-15T09:08:20.373Z,77.98
2019-05-15T09:10:50.649Z,77.52
2019-05-15T09:13:20.105Z,76.83
2019-05-15T09:15:49.731Z,78.10
2019-05-15T09:18:20.113Z,79.14
2019-05-15T09:20:49.814Z,78.75
2019-05-15T09:23:19.886Z,78.32
2019-05-15T09:25:49.959Z,78.85
2019-05-15T09:28:19.745Z,79.42
2019-05-15T09:30:49.915Z,79.46
2019-05-15T09:33:20.272Z,78.99
2019-05-15T09:35:49.878Z,79.80
2019-05-15T09:38:19.328Z,80.50
2019-05-15T09:40:50.834Z,80.97
2019-05-15T09:43:19.930Z,81.25
2019-05-15T09:45:49.642Z,79.52
2019-05-15T09:48:20.927Z,80.56
2019-05-15T09:50:50.399Z,80.99
2019-05-15T09:53:19.854Z,81.57
2019-05-15T09:55:49.956Z,80.73
2019-05-15T09:58:20.948Z,80.95
2019-05-15T10:00:53.000Z,80.29
2019-05-15T10:03:22.330Z,80.30
2019-05-15T10:05:51.787Z,81.14
2019-05-15T10:08:21.771Z,80.47
2019-05-15T10:10:51.393Z,80.58
2019-05-15T10:13:20.826Z,80.07
2019-05-15T10:15:51.252Z,80.11
2019-05-15T10:18:20.773Z,80.39
2019-05-15T10:20:50.229Z,80.36
2019-05-15T10:23:20.079Z,80.82
2019-05-15T10:25:49.615Z,81.02
2019-05-15T10:28:19.626Z,81.39
2019-05-15T10:30:50.026Z,80.36
2019-05-15T10:33:20.458Z,81.08
2019-05-15T10:35:50.479Z,80.32
2019-05-15T10:38:20.396Z,80.41
2019-05-15T10:41:03.908Z,80.94
2019-05-15T10:43:21.226Z,81.03
2019-05-15T10:45:54.182Z,81.90
2019-05-15T10:48:21.800Z,81.30
2019-05-15T10:50:51.614Z,81.04
2019-05-15T10:53:21.528Z,80.81
2019-05-15T10:55:50.958Z,80.27
2019-05-15T10:58:22.149Z,79.95
2019-05-15T11:00:52.002Z,79.92
2019-05-15T11:03:21.452Z,80.16
2019-05-15T11:05:50.906Z,80.25
2019-05-15T11:08:20.359Z,80.33
2019-05-15T11:10:50.106Z,80.05
2019-05-15T11:13:19.701Z,79.38
2019-05-15T11:15:50.121Z,80.56
2019-05-15T11:18:22.155Z,79.31
2019-05-15T11:20:50.986Z,79.23
2019-05-15T11:23:20.596Z,80.25
2019-05-15T11:25:50.005Z,79.81
2019-05-15T11:28:19.525Z,79.28
2019-05-15T11:30:49.416Z,80.92
2019-05-15T11:33:19.370Z,79.96
2019-05-15T11:36:00.961Z,79.39
2019-05-15T11:38:20.248Z,80.78
2019-05-15T11:40:49.694Z,79.93
2019-05-15T11:43:19.910Z,79.44
2019-05-15T11:45:49.500Z,80.53
2019-05-15T11:48:20.465Z,81.35
2019-05-15T11:50:50.316Z,80.92
2019-05-15T11:53:19.774Z,80.99
2019-05-15T11:55:49.228Z,82.06
2019-05-15T11:58:25.392Z,81.91
2019-05-15T12:00:49.829Z,82.38
2019-05-15T12:03:19.395Z,82.77
2019-05-15T12:05:48.826Z,82.81
2019-05-15T12:08:19.959Z,83.15
2019-05-15T12:10:49.668Z,83.51
2019-05-15T12:13:19.282Z,83.75
2019-05-15T12:15:48.882Z,83.48
2019-05-15T12:18:18.321Z,83.85
2019-05-15T12:20:48.640Z,83.15
2019-05-15T12:23:18.477Z,84.01
2019-05-15T12:25:48.845Z,83.78
2019-05-15T12:28:19.907Z,83.94
2019-05-15T12:30:49.408Z,84.53
2019-05-15T12:33:19.022Z,85.04
2019-05-15T12:35:50.732Z,85.07
2019-05-15T12:38:20.898Z,85.37
2019-05-15T13:01:00.032Z,85.18
2019-05-15T13:03:29.568Z,84.57
2019-05-15T13:05:59.027Z,84.80
2019-05-15T13:08:29.252Z,85.08
2019-05-15T13:10:58.976Z,84.95
2019-05-15T13:13:28.572Z,85.50
2019-05-15T13:15:59.045Z,85.09
2019-05-15T13:18:28.842Z,84.87
2019-05-15T13:20:59.417Z,84.95
2019-05-15T13:23:29.254Z,84.46
2019-05-15T13:25:59.413Z,84.35
2019-05-15T13:28:29.383Z,85.06
2019-05-15T13:30:59.675Z,85.21
2019-05-15T13:33:29.254Z,85.21
2019-05-15T13:35:58.744Z,85.28
2019-05-15T13:38:28.861Z,85.36
2019-05-15T13:40:59.083Z,85.55
2019-05-15T13:43:29.174Z,85.29
2019-05-15T13:45:59.524Z,85.40
2019-05-15T13:48:29.776Z,85.47
2019-05-15T13:50:59.463Z,85.02
2019-05-15T13:53:29.281Z,85.39
2019-05-15T13:55:58.733Z,85.86
2019-05-15T13:58:28.499Z,85.29
2019-05-15T14:00:58.806Z,84.91
2019-05-15T14:03:28.828Z,84.85
2019-05-15T14:05:58.666Z,84.91
2019-05-15T14:08:28.770Z,85.34
2019-05-15T14:10:58.604Z,85.78
2019-05-15T14:13:28.694Z,85.46
2019-05-15T14:15:58.531Z,84.98
2019-05-15T14:18:28.663Z,84.42
2019-05-15T14:20:58.683Z,83.97
2019-05-15T14:23:29.461Z,83.85
2019-05-15T14:26:13.048Z,84.76
2019-05-15T14:28:30.274Z,84.09
2019-05-15T14:31:00.097Z,83.88
2019-05-15T14:33:29.884Z,84.40
2019-05-15T14:35:59.351Z,84.25
2019-05-15T14:38:29.178Z,84.76
2019-05-15T14:40:59.191Z,84.61
2019-05-15T14:43:29.453Z,84.95
2019-05-15T14:45:59.253Z,84.67
2019-05-15T14:48:28.695Z,84.63
2019-05-15T14:50:58.571Z,84.56
2019-05-15T14:53:29.373Z,85.00
2019-05-15T14:56:00.295Z,84.90
2019-05-15T14:58:30.101Z,84.90
2019-05-15T15:01:03.270Z,85.01
2019-05-15T15:03:30.712Z,85.05
2019-05-15T15:06:00.175Z,85.20
2019-05-15T15:08:32.469Z,84.89
2019-05-15T15:11:00.788Z,85.53
2019-05-15T15:13:30.913Z,85.38
2019-05-15T15:16:00.395Z,85.19
2019-05-15T15:18:29.842Z,85.78
2019-05-15T15:20:59.303Z,86.17
2019-05-15T15:23:28.743Z,85.98
2019-05-15T15:25:58.482Z,86.27
2019-05-15T15:28:28.207Z,86.49
2019-05-15T15:30:58.249Z,86.23
2019-05-15T15:33:28.892Z,85.91
2019-05-15T15:35:58.543Z,86.00
2019-05-15T15:38:40.068Z,85.66
2019-05-15T15:41:00.447Z,85.64
2019-05-15T15:43:30.163Z,86.03
2019-05-15T15:45:59.903Z,86.02
2019-05-15T15:48:29.392Z,86.31
2019-05-15T15:50:58.952Z,85.92
2019-05-15T15:53:28.816Z,85.87
2019-05-15T15:55:58.685Z,85.64
2019-05-15T15:58:29.103Z,85.68
2019-05-15T16:00:58.613Z,85.84
2019-05-15T16:03:28.785Z,84.80
2019-05-15T16:05:58.337Z,85.15
2019-05-15T16:08:28.590Z,85.16
2019-05-15T16:10:58.951Z,84.62
2019-05-15T16:13:29.190Z,84.66
2019-05-15T16:15:59.090Z,84.34
2019-05-15T16:18:29.074Z,83.70
2019-05-15T16:20:58.630Z,83.96
2019-05-15T16:23:28.466Z,83.87
2019-05-15T16:26:01.005Z,84.40
2019-05-15T16:28:29.716Z,84.14
2019-05-15T16:30:59.212Z,83.90
2019-05-15T16:33:28.729Z,84.03
2019-05-15T16:35:58.657Z,83.93
2019-05-15T16:38:28.519Z,84.05
2019-05-15T16:40:58.495Z,83.90
2019-05-15T16:43:28.792Z,83.59
2019-05-15T16:45:58.945Z,83.71
2019-05-15T16:48:29.508Z,83.50
2019-05-15T16:50:59.098Z,83.93
2019-05-15T16:53:29.077Z,83.48
2019-05-15T16:55:58.848Z,83.18
2019-05-15T16:58:29.628Z,82.65
2019-05-15T17:00:59.445Z,83.81
2019-05-15T17:03:29.135Z,84.23
2019-05-15T17:05:58.929Z,84.77
2019-05-15T17:08:32.054Z,84.71
2019-05-15T17:11:00.172Z,84.42
2019-05-15T17:13:29.632Z,84.54
2019-05-15T17:15:59.094Z,84.96
2019-05-15T17:18:28.548Z,84.95
2019-05-15T17:20:59.016Z,85.20
2019-05-15T17:23:28.901Z,85.63
2019-05-15T17:25:58.617Z,86.04
2019-05-15T17:28:28.979Z,86.01
2019-05-15T17:30:58.913Z,86.24
2019-05-15T17:33:29.056Z,86.32
2019-05-15T17:35:58.541Z,86.25
2019-05-15T17:38:28.676Z,86.45
2019-05-15T17:40:58.496Z,86.86
2019-05-15T17:43:28.721Z,86.95
2019-05-15T17:45:58.628Z,86.93
2019-05-15T17:48:28.952Z,86.73
2019-05-15T17:50:59.469Z,87.10
2019-05-15T17:53:29.586Z,86.95
2019-05-15T17:55:59.335Z,86.60
2019-05-15T17:58:28.987Z,86.57
2019-05-15T18:00:59.427Z,86.92
2019-05-15T18:03:29.553Z,87.09
2019-05-15T18:05:59.379Z,86.57
2019-05-15T18:08:29.253Z,86.42
2019-05-15T18:10:59.232Z,86.70
2019-05-15T18:13:28.917Z,86.84
2019-05-15T18:16:03.241Z,86.99
2019-05-15T18:18:29.609Z,87.18
2019-05-15T18:20:59.067Z,87.37
2019-05-15T18:23:28.536Z,87.54
2019-05-15T18:25:58.668Z,87.69
2019-05-15T18:28:28.131Z,87.84
2019-05-15T18:30:58.783Z,87.99
2019-05-15T18:33:28.416Z,88.18
2019-05-15T18:35:58.275Z,88.34
2019-05-15T18:38:28.237Z,88.38
2019-05-15T18:40:58.398Z,88.36
2019-05-15T18:43:28.424Z,88.43
2019-05-15T18:45:58.599Z,88.62
2019-05-15T18:48:28.837Z,88.79
2019-05-15T18:50:58.912Z,88.90
2019-05-15T18:53:28.537Z,89.01
2019-05-15T18:55:58.512Z,89.07
2019-05-15T18:58:28.156Z,89.07
2019-05-15T19:00:58.372Z,89.19
2019-05-15T19:03:28.102Z,89.22
2019-05-15T19:05:58.479Z,89.46
2019-05-15T19:08:28.356Z,89.51
2019-05-15T19:10:58.613Z,89.57
2019-05-15T19:13:28.404Z,89.62
2019-05-15T19:15:58.213Z,89.67
2019-05-15T19:18:28.023Z,89.67
2019-05-15T19:20:58.615Z,89.60
2019-05-15T19:23:28.599Z,89.52
2019-05-15T19:25:58.411Z,89.41
2019-05-15T19:28:28.521Z,89.46
2019-05-15T19:30:58.732Z,89.53
2019-05-15T19:33:37.092Z,89.62
2019-05-15T19:36:02.122Z,89.70
2019-05-15T19:38:30.795Z,89.82
2019-05-15T19:41:02.966Z,89.90
2019-05-15T19:43:32.148Z,89.87
2019-05-15T19:46:01.615Z,89.88
2019-05-15T19:48:31.179Z,89.96
2019-05-15T19:51:00.647Z,90.06
2019-05-15T19:53:30.559Z,90.00
2019-05-15T19:56:00.487Z,90.12
2019-05-15T19:58:30.132Z,90.23
2019-05-15T20:00:59.942Z,90.30
2019-05-15T20:03:29.549Z,90.39
2019-05-15T20:06:01.399Z,90.43
2019-05-15T20:08:30.194Z,90.35
2019-05-15T20:10:59.642Z,90.33
2019-05-15T20:13:29.601Z,90.32
2019-05-15T20:15:59.032Z,90.26
2019-05-15T20:18:28.500Z,90.29
2019-05-15T20:20:58.490Z,90.34
2019-05-15T20:23:28.860Z,90.43
2019-05-15T20:25:58.499Z,90.41
2019-05-15T20:28:28.580Z,90.36
2019-05-15T20:30:58.927Z,90.29
2019-05-15T20:33:28.701Z,90.36
2019-05-15T20:35:58.860Z,90.28
2019-05-15T20:38:28.850Z,90.14
2019-05-15T20:40:59.754Z,90.21
2019-05-15T20:43:29.460Z,90.10
2019-05-15T20:45:59.295Z,89.99
2019-05-15T20:48:29.079Z,89.98
2019-05-15T20:50:59.101Z,90.04
2019-05-15T20:53:28.865Z,90.02
2019-05-15T20:55:59.005Z,90.03
2019-05-15T20:58:28.570Z,89.98
2019-05-15T21:00:59.156Z,89.98
2019-05-15T21:03:28.820Z,89.91
2019-05-15T21:06:00.756Z,89.68
2019-05-15T21:08:29.772Z,89.53
2019-05-15T21:10:59.320Z,89.50
2019-05-15T21:13:29.892Z,89.21
2019-05-15T21:15:59.456Z,89.23
2019-05-15T21:18:29.249Z,89.53
2019-05-15T21:20:58.725Z,89.76
2019-05-15T21:23:28.639Z,89.95
2019-05-15T21:25:59.047Z,89.82
2019-05-15T21:28:30.102Z,89.49
2019-05-15T21:30:59.658Z,89.50
2019-05-15T21:33:29.787Z,89.45
2019-05-15T21:35:59.307Z,89.44
2019-05-15T21:38:28.774Z,89.51
2019-05-15T21:40:58.726Z,89.59
2019-05-15T21:43:28.328Z,89.66
2019-05-15T21:45:59.122Z,89.89
2019-05-15T21:48:28.934Z,90.00
2019-05-15T21:50:58.608Z,90.07
2019-05-15T21:53:28.844Z,90.12
2019-05-15T21:55:59.000Z,90.32
2019-05-15T21:58:28.619Z,90.43
2019-05-15T22:01:19.613Z,90.45
2019-05-15T22:03:49.421Z,90.31
2019-05-15T22:06:18.878Z,90.06
2019-05-15T22:08:48.328Z,90.01
2019-05-15T22:11:18.746Z,89.87
2019-05-15T22:13:49.307Z,89.71
2019-05-15T22:16:19.250Z,89.76
2019-05-15T22:18:48.934Z,89.78
2019-05-15T22:21:18.716Z,89.56
2019-05-15T22:23:48.229Z,89.38
2019-05-15T22:26:18.502Z,89.26
2019-05-15T22:28:49.101Z,89.12
2019-05-15T22:31:18.541Z,89.08
2019-05-15T22:33:48.356Z,89.25
2019-05-15T22:36:18.849Z,89.19
2019-05-15T22:38:50.389Z,89.19
2019-05-15T22:41:19.904Z,88.94
2019-05-15T22:43:49.403Z,88.96
2019-05-15T22:46:18.877Z,89.08
2019-05-15T22:48:48.716Z,89.00
2019-05-15T22:51:18.548Z,88.83
2019-05-15T22:53:48.879Z,88.91
2019-05-15T22:56:18.515Z,89.08
2019-05-15T22:58:48.181Z,89.10
2019-05-15T23:01:18.836Z,89.05
2019-05-15T23:03:48.557Z,88.52
2019-05-15T23:06:18.195Z,88.57
2019-05-15T23:08:48.948Z,88.90
2019-05-15T23:11:18.881Z,88.92
2019-05-15T23:13:48.693Z,89.00
2019-05-15T23:16:18.768Z,89.12
2019-05-15T23:18:48.833Z,89.18
2019-05-15T23:21:19.081Z,89.33
2019-05-15T23:23:48.962Z,89.42
2019-05-15T23:26:18.417Z,89.35
2019-05-15T23:28:48.210Z,89.18
2019-05-15T23:31:18.858Z,89.10
2019-05-15T23:33:48.716Z,88.60
2019-05-15T23:36:18.669Z,88.61
2019-05-15T23:38:48.463Z,88.78
2019-05-15T23:41:18.892Z,88.61
2019-05-15T23:43:48.542Z,88.67
2019-05-15T23:46:18.592Z,88.86
2019-05-15T23:48:48.636Z,89.15
2019-05-15T23:51:19.141Z,88.92
2019-05-15T23:53:48.650Z,88.91
2019-05-15T23:56:19.007Z,89.04
2019-05-15T23:58:48.673Z,89.23
